Time;durP1;ratioP1;P1;durP2;ratioP2;P2;SDS_P1;SDS_P2;PMS_P1;PMS_P2;Temp;Humidity;BMP_temperature;BMP_pressure;BME280_temperature;BME280_humidity;BME280_pressure;Samples;Min_cycle;Max_cycle;Signal;HPM_P1;HPM_P2
2022/09/20 00:00:47;;;;;;;3.95;1.67;;;;;;;8.20;100.00;98654.72;4500137;31;20096;-73
2022/09/20 00:03:15;;;;;;;3.65;1.45;;;;;;;8.19;100.00;98655.69;4500262;31;20108;-73
2022/09/20 00:05:44;;;;;;;3.75;1.95;;;;;;;8.19;100.00;98655.69;4500047;31;20118;-73
2022/09/20 00:08:14;;;;;;;2.25;1.48;;;;;;;8.18;100.00;98654.03;4484498;31;20114;-73
2022/09/20 00:10:41;;;;;;;1.35;1.20;;;;;;;8.19;100.00;98650.47;4484421;31;20774;-73
2022/09/20 00:13:10;;;;;;;3.65;1.50;;;;;;;8.16;100.00;98651.53;4484264;31;20138;-73
2022/09/20 00:15:43;;;;;;;2.10;1.33;;;;;;;8.12;100.00;98657.13;4484229;31;20122;-73
2022/09/20 00:18:11;;;;;;;1.10;0.90;;;;;;;8.16;100.00;98654.16;4484317;31;20133;-73
2022/09/20 00:20:45;;;;;;;2.47;1.17;;;;;;;8.11;100.00;98658.87;4484121;31;20089;-73
2022/09/20 00:23:13;;;;;;;1.50;1.27;;;;;;;8.11;100.00;98653.66;4484110;31;20112;-73
2022/09/20 00:25:41;;;;;;;1.98;1.50;;;;;;;8.08;100.00;98653.91;4484290;31;20108;-73
2022/09/20 00:28:09;;;;;;;1.10;1.00;;;;;;;8.03;100.00;98653.47;4484492;31;20518;-73
2022/09/20 00:30:37;;;;;;;1.20;0.93;;;;;;;8.04;100.00;98655.16;4484098;31;20464;-73
2022/09/20 00:33:04;;;;;;;2.15;1.40;;;;;;;8.02;100.00;98645.78;4483981;32;20084;-73
2022/09/20 00:35:31;;;;;;;3.42;1.20;;;;;;;8.00;100.00;98653.72;4483764;31;20105;-73
2022/09/20 00:37:59;;;;;;;0.95;0.80;;;;;;;8.03;100.00;98652.66;4483853;31;20152;-73
2022/09/20 00:40:26;;;;;;;2.12;1.17;;;;;;;8.01;100.00;98647.56;4484187;31;20488;-73
2022/09/20 00:42:53;;;;;;;1.52;1.00;;;;;;;7.94;100.00;98651.59;4483799;31;20170;-73
2022/09/20 00:45:21;;;;;;;1.87;1.10;;;;;;;7.94;100.00;98649.00;4483912;31;20175;-73
2022/09/20 00:47:55;;;;;;;3.28;1.10;;;;;;;7.89;100.00;98657.19;4483786;31;20823;-74
2022/09/20 00:50:48;;;;;;;1.65;1.17;;;;;;;7.89;100.00;98658.97;4483861;31;20155;-73
2022/09/20 00:53:25;;;;;;;2.37;1.27;;;;;;;7.86;100.00;98656.59;4483742;31;20806;-74
2022/09/20 00:55:56;;;;;;;2.45;1.10;;;;;;;7.83;100.00;98665.50;4482623;32;20489;-73
2022/09/20 00:58:25;;;;;;;1.58;1.10;;;;;;;7.84;100.00;98661.13;4482465;32;20077;-74
2022/09/20 01:00:54;;;;;;;1.15;0.93;;;;;;;7.85;100.00;98666.22;4484498;32;20128;-73
2022/09/20 01:03:24;;;;;;;2.72;0.90;;;;;;;7.85;100.00;98663.59;4485810;31;20454;-73
2022/09/20 01:05:52;;;;;;;1.58;1.10;;;;;;;7.84;100.00;98672.38;4486111;31;20100;-73
2022/09/20 01:08:20;;;;;;;4.40;0.70;;;;;;;7.80;100.00;98681.41;4501398;31;20583;-73
2022/09/20 01:10:47;;;;;;;1.40;1.20;;;;;;;7.79;100.00;98682.34;4501740;31;20155;-73
2022/09/20 01:13:14;;;;;;;1.67;0.90;;;;;;;7.80;100.00;98676.19;4501897;31;20107;-74
2022/09/20 01:15:43;;;;;;;1.95;0.90;;;;;;;7.81;100.00;98689.09;4501666;31;20152;-73
2022/09/20 01:18:11;;;;;;;1.55;0.90;;;;;;;7.79;100.00;98680.56;4500401;31;20114;-73
2022/09/20 01:20:40;;;;;;;2.70;1.10;;;;;;;7.81;100.00;98672.63;4500503;31;20147;-74
2022/09/20 01:23:11;;;;;;;2.08;0.85;;;;;;;7.82;100.00;98675.09;4500336;31;20822;-74
2022/09/20 01:26:02;;;;;;;1.35;0.85;;;;;;;7.85;100.00;98684.47;4501734;31;20077;-73
2022/09/20 01:28:33;;;;;;;1.42;1.00;;;;;;;7.83;100.00;98689.00;4501662;31;20103;-74
2022/09/20 01:31:25;;;;;;;1.80;0.90;;;;;;;7.85;100.00;98689.69;4500641;31;20525;-74
2022/09/20 01:34:01;;;;;;;2.80;1.10;;;;;;;7.83;100.00;98683.78;4500172;31;20144;-74
2022/09/20 01:36:49;;;;;;;1.48;1.17;;;;;;;7.81;100.00;98678.69;4499968;31;20128;-74
2022/09/20 01:39:26;;;;;;;1.95;1.08;;;;;;;7.82;100.00;98680.31;4500369;31;20119;-74
2022/09/20 01:41:59;;;;;;;2.08;1.33;;;;;;;7.79;100.00;98684.97;4488789;31;20176;-74
2022/09/20 01:44:34;;;;;;;3.33;1.12;;;;;;;7.75;100.00;98684.38;4484486;32;20115;-73
2022/09/20 01:47:10;;;;;;;1.33;1.00;;;;;;;7.78;100.00;98678.06;4485709;32;20152;-74
2022/09/20 01:49:41;;;;;;;1.10;0.80;;;;;;;7.81;100.00;98683.88;4484482;32;20093;-74
2022/09/20 01:52:32;;;;;;;3.05;0.98;;;;;;;7.76;100.00;98679.97;4485528;32;20085;-74
2022/09/20 01:55:27;;;;;;;3.37;1.30;;;;;;;7.78;100.00;98678.91;4485706;32;20092;-74
2022/09/20 01:58:06;;;;;;;;;;;;;;;7.73;100.00;98681.03;4485790;32;20151;-74
2022/09/20 02:00:56;;;;;;;1.55;1.00;;;;;;;7.71;100.00;98677.75;4484577;32;19994;-74
2022/09/20 02:03:56;;;;;;;2.28;1.15;;;;;;;7.69;100.00;98673.59;4485353;32;20120;-74
2022/09/20 02:06:41;;;;;;;3.78;1.70;;;;;;;7.68;100.00;98671.94;4474028;31;20170;-74
2022/09/20 02:09:38;;;;;;;4.62;1.73;;;;;;;7.70;100.00;98670.84;4501356;31;20079;-74
2022/09/20 02:12:24;;;;;;;5.50;2.28;;;;;;;7.67;100.00;98676.31;4498810;31;20488;-74
2022/09/20 02:15:02;;;;;;;9.95;2.17;;;;;;;7.62;100.00;98679.28;4501367;31;20224;-74
2022/09/20 02:18:09;;;;;;;4.50;2.05;;;;;;;7.61;100.00;98682.84;4500065;31;20182;-74
2022/09/20 02:20:43;;;;;;;5.65;2.05;;;;;;;7.57;100.00;98680.59;4436317;32;20660;-74
2022/09/20 02:23:21;;;;;;;4.57;2.62;;;;;;;7.56;100.00;98686.78;4435981;32;20124;-74
2022/09/20 02:25:59;;;;;;;5.35;2.25;;;;;;;7.54;100.00;98692.09;4436291;32;20101;-74
2022/09/20 02:28:48;;;;;;;6.97;3.10;;;;;;;7.55;100.00;98698.97;4423565;32;20097;-74
2022/09/20 02:31:40;;;;;;;7.62;2.92;;;;;;;7.52;100.00;98699.19;4436158;32;20129;-74
2022/09/20 02:34:31;;;;;;;4.30;2.28;;;;;;;7.49;100.00;98699.44;4435914;32;20416;-74
2022/09/20 02:37:06;;;;;;;4.85;2.37;;;;;;;7.48;100.00;98692.59;4435839;32;20121;-74
2022/09/20 02:40:07;;;;;;;6.72;2.28;;;;;;;7.44;100.00;98696.38;4423567;32;20595;-74
2022/09/20 02:42:50;;;;;;;3.22;2.20;;;;;;;7.41;100.00;98699.22;4408395;32;20214;-74
2022/09/20 02:45:41;;;;;;;4.30;2.17;;;;;;;7.38;100.00;98702.88;4420734;32;20167;-74
2022/09/20 02:48:09;;;;;;;3.92;1.98;;;;;;;7.34;100.00;98701.44;4420985;32;20522;-74
2022/09/20 02:50:58;;;;;;;5.10;2.47;;;;;;;7.32;100.00;98700.75;4420933;32;20181;-74
2022/09/20 02:54:02;;;;;;;5.05;2.08;;;;;;;7.28;100.00;98701.91;4408017;32;20481;-74
2022/09/20 02:56:47;;;;;;;3.08;2.10;;;;;;;7.22;100.00;98713.66;4413363;32;20116;-74
2022/09/20 02:59:44;;;;;;;5.53;2.25;;;;;;;7.18;100.00;98708.81;4485146;31;20156;-74
2022/09/20 03:02:50;;;;;;;3.58;2.20;;;;;;;7.18;100.00;98714.84;4485150;31;20491;-74
2022/09/20 03:05:25;;;;;;;2.33;1.87;;;;;;;7.13;100.00;98711.75;4485039;31;20089;-74
2022/09/20 03:08:31;;;;;;;3.95;1.73;;;;;;;7.14;100.00;98712.59;4497426;31;20113;-74
2022/09/20 03:11:10;;;;;;;4.78;2.20;;;;;;;7.05;100.00;98721.91;4491560;31;20153;-74
2022/09/20 03:14:04;;;;;;;3.65;2.15;;;;;;;7.09;100.00;98728.56;4500795;31;20108;-74
2022/09/20 03:16:56;;;;;;;6.43;2.47;;;;;;;7.05;100.00;98721.91;4500936;31;20156;-74
2022/09/20 03:20:00;;;;;;;5.65;2.37;;;;;;;7.03;100.00;98713.41;4500706;31;20454;-74
2022/09/20 03:22:33;;;;;;;4.22;2.30;;;;;;;7.00;100.00;98711.03;4500655;31;20116;-74
2022/09/20 03:25:06;;;;;;;3.90;2.72;;;;;;;7.00;100.00;98705.81;4500362;31;20625;-74
2022/09/20 03:28:08;;;;;;;4.55;2.75;;;;;;;6.98;100.00;98705.94;4499604;31;20174;-74
2022/09/20 03:30:41;;;;;;;3.92;2.62;;;;;;;6.99;100.00;98706.75;4500799;31;20152;-74
2022/09/20 03:33:25;;;;;;;4.53;2.83;;;;;;;6.97;100.00;98704.28;4500449;31;20106;-74
2022/09/20 03:36:08;;;;;;;3.83;2.75;;;;;;;6.96;100.00;98704.38;4499455;31;20108;-74
2022/09/20 03:38:52;;;;;;;4.68;3.30;;;;;;;6.94;100.00;98701.91;4500717;31;20102;-74
2022/09/20 03:41:43;;;;;;;5.10;3.08;;;;;;;6.97;100.00;98703.44;4490536;31;20160;-74
2022/09/20 03:44:20;;;;;;;5.50;3.10;;;;;;;6.97;100.00;98704.28;4484779;32;20155;-74
2022/09/20 03:46:50;;;;;;;8.18;2.90;;;;;;;6.98;100.00;98707.69;4484864;32;20151;-74
2022/09/20 03:49:45;;;;;;;6.57;3.05;;;;;;;6.97;100.00;98709.47;4483836;32;20423;-74
2022/09/20 03:52:15;;;;;;;7.35;3.08;;;;;;;6.97;100.00;98712.09;4483466;32;20366;-74
2022/09/20 03:54:48;;;;;;;5.85;3.62;;;;;;;6.92;100.00;98712.44;4484633;32;20101;-75
2022/09/20 03:57:43;;;;;;;5.25;2.70;;;;;;;6.90;100.00;98706.50;4484670;32;20127;-74
2022/09/20 04:00:22;;;;;;;4.75;3.00;;;;;;;6.85;100.00;98707.81;4484661;31;20118;-75
2022/09/20 04:02:58;;;;;;;4.97;2.97;;;;;;;6.83;100.00;98715.72;4484680;32;20096;-75
2022/09/20 04:05:46;;;;;;;6.57;3.00;;;;;;;6.85;100.00;98713.81;4484391;32;20139;-74
2022/09/20 04:08:40;;;;;;;3.65;2.55;;;;;;;6.84;100.00;98708.72;4497841;31;20120;-74
2022/09/20 04:11:19;;;;;;;7.18;2.67;;;;;;;6.84;100.00;98717.38;4435065;32;20456;-74
2022/09/20 04:13:54;;;;;;;6.50;3.15;;;;;;;6.83;100.00;98718.31;4422661;32;20120;-75
2022/09/20 04:16:50;;;;;;;5.87;3.15;;;;;;;6.80;100.00;98721.16;4435162;32;20132;-75
2022/09/20 04:19:40;;;;;;;8.88;3.33;;;;;;;6.85;100.00;98726.03;4422642;32;20147;-75
2022/09/20 04:22:08;;;;;;;7.65;3.40;;;;;;;6.77;100.00;98742.22;4434106;32;20196;-73
2022/09/20 04:25:03;;;;;;;8.18;3.33;;;;;;;6.78;100.00;98736.06;4434899;32;20221;-75
2022/09/20 04:27:41;;;;;;;5.60;3.03;;;;;;;6.72;100.00;98732.16;4402422;32;20156;-75
2022/09/20 04:30:23;;;;;;;6.25;3.33;;;;;;;6.73;100.00;98730.38;4403097;32;20114;-75
2022/09/20 04:32:57;;;;;;;5.65;3.30;;;;;;;6.70;100.00;98730.59;4404288;32;20503;-75
2022/09/20 04:36:28;;;;;;;5.60;3.62;;;;;;;6.72;100.00;98726.09;4404476;32;20106;-75
2022/09/20 04:39:05;;;;;;;6.25;3.70;;;;;;;6.75;100.00;98731.94;4326637;33;20112;-76
2022/09/20 04:41:56;;;;;;;5.70;3.30;;;;;;;6.74;100.00;98719.84;4330157;33;20156;-75
2022/09/20 04:44:26;;;;;;;5.97;3.50;;;;;;;6.75;100.00;98726.72;4330662;33;20135;-75
2022/09/20 04:47:31;;;;;;;3.92;2.90;;;;;;;6.78;100.00;98724.81;4331533;32;20134;-75
2022/09/20 04:50:27;;;;;;;11.98;3.65;;;;;;;6.79;100.00;98724.69;4360121;32;20160;-75
2022/09/20 04:53:23;;;;;;;4.87;3.20;;;;;;;6.83;100.00;98728.75;4360968;32;20252;-75
2022/09/20 04:56:03;;;;;;;6.18;3.47;;;;;;;6.86;100.00;98727.69;4359302;32;20117;-75
2022/09/20 04:58:37;;;;;;;4.00;2.80;;;;;;;6.91;100.00;98729.00;4358011;32;20154;-76
2022/09/20 05:01:31;;;;;;;8.60;3.95;;;;;;;6.97;100.00;98732.91;4345478;32;20280;-75
2022/09/20 05:04:39;;;;;;;6.05;2.75;;;;;;;7.02;100.00;98737.78;4351999;32;20125;-76
2022/09/20 05:07:27;;;;;;;10.20;3.30;;;;;;;7.10;100.00;98730.19;4415399;32;20249;-76
2022/09/20 05:10:00;;;;;;;5.35;2.62;;;;;;;7.17;100.00;98739.22;4410860;32;20219;-76
2022/09/20 05:12:43;;;;;;;5.53;2.55;;;;;;;7.28;100.00;98743.63;4443488;32;20176;-76
2022/09/20 05:15:36;;;;;;;6.12;2.47;;;;;;;7.33;100.00;98740.66;4493037;31;20799;-76
2022/09/20 05:18:06;;;;;;;4.65;2.92;;;;;;;7.33;100.00;98751.06;4488435;31;20571;-75
2022/09/20 05:20:58;;;;;;;7.65;2.95;;;;;;;7.42;100.00;98753.84;4492966;31;20119;-76
2022/09/20 05:23:57;;;;;;;5.62;2.47;;;;;;;7.51;100.00;98759.28;4490955;31;20100;-74
2022/09/20 05:26:35;;;;;;;3.97;2.55;;;;;;;7.53;100.00;98767.81;4488756;31;20103;-75
2022/09/20 05:29:09;;;;;;;4.05;2.90;;;;;;;7.61;100.00;98766.25;4478066;31;20413;-75
2022/09/20 05:31:37;;;;;;;3.90;2.45;;;;;;;7.72;100.00;98767.22;4491440;31;20118;-75
2022/09/20 05:34:23;;;;;;;4.28;2.33;;;;;;;7.75;100.00;98766.97;4492677;31;20420;-76
2022/09/20 05:37:20;;;;;;;3.83;2.35;;;;;;;7.75;100.00;98773.03;4494363;31;20093;-76
2022/09/20 05:40:04;;;;;;;4.43;2.30;;;;;;;7.81;100.00;98771.72;4499131;31;20118;-75
2022/09/20 05:42:51;;;;;;;3.67;2.42;;;;;;;7.85;100.00;98773.16;4486856;31;20100;-75
2022/09/20 05:45:33;;;;;;;3.67;2.75;;;;;;;7.86;100.00;98781.78;4494481;31;20096;-76
2022/09/20 05:48:06;;;;;;;3.33;2.40;;;;;;;7.92;100.00;98776.94;4493108;31;20112;-75
2022/09/20 05:50:59;;;;;;;3.47;2.20;;;;;;;8.02;100.00;98774.44;4498951;31;20128;-75
2022/09/20 05:53:49;;;;;;;7.70;2.70;;;;;;;8.12;100.00;98769.31;4487465;31;20126;-75
2022/09/20 05:56:28;;;;;;;5.25;2.40;;;;;;;8.15;100.00;98775.13;4495238;31;20102;-76
2022/09/20 05:59:11;;;;;;;5.03;1.98;;;;;;;8.20;100.00;98776.53;4490946;31;20118;-74
2022/09/20 06:01:41;;;;;;;5.40;2.25;;;;;;;8.23;100.00;98766.69;4485774;31;20164;-75
2022/09/20 06:04:14;;;;;;;5.80;2.58;;;;;;;8.36;100.00;98771.75;4495584;31;20130;-76
2022/09/20 06:06:57;;;;;;;2.62;2.00;;;;;;;8.42;100.00;98765.19;4487913;31;20129;-75
2022/09/20 06:09:43;;;;;;;4.45;2.55;;;;;;;8.47;100.00;98769.13;4489960;31;20568;-74
2022/09/20 06:12:15;;;;;;;4.32;2.60;;;;;;;8.55;100.00;98778.12;4492615;31;20789;-76
2022/09/20 06:15:03;;;;;;;5.53;2.75;;;;;;;8.62;100.00;98771.47;4490976;31;20155;-78
2022/09/20 06:17:38;;;;;;;6.70;2.80;;;;;;;8.70;100.00;98771.66;4496881;31;20081;-79
2022/09/20 06:20:29;;;;;;;5.82;2.90;;;;;;;8.66;100.00;98780.69;4491030;31;20120;-79
2022/09/20 06:22:59;;;;;;;5.00;2.85;;;;;;;8.75;100.00;98777.38;4489390;31;20111;-79
2022/09/20 06:25:30;;;;;;;4.45;2.78;;;;;;;8.89;100.00;98778.84;4488123;31;20457;-76
2022/09/20 06:28:17;;;;;;;7.60;2.80;;;;;;;8.98;100.00;98772.03;4493096;31;20437;-78
2022/09/20 06:30:49;;;;;;;6.20;2.92;;;;;;;9.12;100.00;98766.47;4493967;31;20130;-78
2022/09/20 06:33:19;;;;;;;4.93;3.35;;;;;;;9.16;100.00;98772.25;4490138;31;20153;-78
2022/09/20 06:35:54;;;;;;;4.85;2.90;;;;;;;9.26;100.00;98781.00;4498862;31;20418;-76
2022/09/20 06:41:31;;;;;;;5.45;3.00;;;;;;;9.27;100.00;98779.22;4498048;31;20116;-79
2022/09/20 06:44:02;;;;;;;5.87;2.85;;;;;;;9.41;100.00;98784.94;4489813;31;20100;-77
2022/09/20 06:46:33;;;;;;;5.72;2.80;;;;;;;9.41;100.00;98790.16;4495202;31;20164;-76
2022/09/20 06:49:00;;;;;;;8.95;3.75;;;;;;;9.43;100.00;98786.59;4484662;31;20100;-75
2022/09/20 06:51:32;;;;;;;6.55;2.85;;;;;;;9.56;100.00;98793.28;4493390;31;20103;-75
2022/09/20 06:54:00;;;;;;;6.05;3.03;;;;;;;9.76;100.00;98790.75;4499067;31;20528;-74
2022/09/20 06:56:29;;;;;;;3.72;2.83;;;;;;;9.87;100.00;98798.53;4498248;31;20153;-74
2022/09/20 06:58:56;;;;;;;5.43;2.75;;;;;;;9.97;100.00;98788.09;4487602;31;20104;-75
2022/09/20 07:01:23;;;;;;;3.17;2.40;;;;;;;9.94;100.00;98790.97;4488134;31;20159;-75
2022/09/20 07:03:57;;;;;;;3.85;2.80;;;;;;;10.10;100.00;98803.56;4486728;31;20084;-78
2022/09/20 07:06:25;;;;;;;4.97;2.83;;;;;;;9.95;100.00;98797.84;4492901;31;20509;-76
2022/09/20 07:08:52;;;;;;;7.68;3.12;;;;;;;9.79;100.00;98807.97;4495158;31;20096;-75
2022/09/20 07:11:22;;;;;;;4.93;3.20;;;;;;;9.75;100.00;98808.25;4498261;31;20897;-77
2022/09/20 07:13:51;;;;;;;3.90;2.80;;;;;;;9.80;100.00;98810.47;4497208;31;20159;-75
2022/09/20 07:16:19;;;;;;;4.22;3.17;;;;;;;10.12;100.00;98809.47;4495841;31;20495;-76
2022/09/20 07:18:47;;;;;;;4.00;3.10;;;;;;;10.27;100.00;98810.75;4499117;31;20104;-77
2022/09/20 07:21:17;;;;;;;3.78;2.70;;;;;;;10.28;100.00;98811.59;4496376;31;20210;-76
2022/09/20 07:23:44;;;;;;;7.10;2.75;;;;;;;10.43;100.00;98815.53;4491015;31;20115;-74
2022/09/20 07:26:24;;;;;;;6.53;2.58;;;;;;;10.53;100.00;98820.78;4491394;31;20143;-73
2022/09/20 07:28:52;;;;;;;4.35;2.05;;;;;;;10.50;100.00;98822.84;4489547;31;20111;-74
2022/09/20 07:31:21;;;;;;;3.33;2.15;;;;;;;10.35;100.00;98823.22;4495333;31;20112;-76
2022/09/20 07:33:48;;;;;;;4.97;2.62;;;;;;;10.35;100.00;98836.31;4489722;31;20169;-75
2022/09/20 07:36:16;;;;;;;3.92;2.28;;;;;;;10.21;100.00;98824.38;4492743;31;20168;-75
2022/09/20 07:38:47;;;;;;;5.55;2.40;;;;;;;10.17;100.00;98835.25;4496484;31;20573;-73
2022/09/20 07:41:17;;;;;;;2.25;1.98;;;;;;;10.03;100.00;98825.97;4493267;31;20096;-75
2022/09/20 07:43:45;;;;;;;2.40;1.83;;;;;;;10.09;100.00;98831.50;4496302;31;20179;-76
2022/09/20 07:46:12;;;;;;;3.53;2.05;;;;;;;10.23;100.00;98837.34;4493249;31;20441;-74
2022/09/20 07:48:40;;;;;;;2.95;2.00;;;;;;;10.30;100.00;98833.25;4497462;31;20104;-75
2022/09/20 07:51:10;;;;;;;6.05;2.45;;;;;;;10.56;100.00;98835.41;4491410;31;20151;-75
2022/09/20 07:53:37;;;;;;;3.40;2.10;;;;;;;10.85;100.00;98840.66;4486754;31;20152;-74
2022/09/20 07:56:07;;;;;;;2.35;1.98;;;;;;;11.00;100.00;98839.28;4486915;31;20506;-74
2022/09/20 07:58:35;;;;;;;2.53;2.10;;;;;;;11.01;100.00;98830.47;4495681;31;20146;-77
2022/09/20 08:01:05;;;;;;;3.83;1.70;;;;;;;10.86;100.00;98839.69;4497436;31;20437;-78
2022/09/20 08:03:33;;;;;;;6.07;2.08;;;;;;;11.04;100.00;98837.22;4498896;31;20116;-78
2022/09/20 08:06:03;;;;;;;3.60;2.10;;;;;;;11.09;100.00;98839.44;4497991;31;20156;-76
2022/09/20 08:08:38;;;;;;;2.72;2.17;;;;;;;10.99;100.00;98845.50;4483554;31;20126;-76
2022/09/20 08:11:08;;;;;;;3.12;2.03;;;;;;;11.26;100.00;98849.19;4492395;31;20469;-75
2022/09/20 08:13:41;;;;;;;3.72;2.15;;;;;;;11.41;100.00;98836.50;4499676;31;20084;-77
2022/09/20 08:16:29;;;;;;;3.70;2.70;;;;;;;11.45;100.00;98845.75;4498045;31;20762;-76
2022/09/20 08:18:58;;;;;;;5.93;2.50;;;;;;;11.58;100.00;98832.31;4485712;31;20374;-77
2022/09/20 08:21:29;;;;;;;3.60;2.22;;;;;;;11.61;100.00;98844.31;4498038;31;20156;-76
2022/09/20 08:23:57;;;;;;;4.60;2.10;;;;;;;11.76;100.00;98837.66;4496058;31;20168;-75
2022/09/20 08:26:26;;;;;;;3.25;2.33;;;;;;;11.75;100.00;98848.28;4495881;31;20401;-75
2022/09/20 08:28:56;;;;;;;4.47;2.55;;;;;;;11.71;100.00;98853.81;4497134;31;20169;-76
2022/09/20 08:31:26;;;;;;;4.43;2.37;;;;;;;11.89;100.00;98846.03;4499374;31;20147;-76
2022/09/20 08:33:54;;;;;;;2.92;2.17;;;;;;;12.21;100.00;98836.94;4493281;31;20152;-79
2022/09/20 08:36:23;;;;;;;3.17;2.53;;;;;;;12.40;100.00;98841.28;4496665;31;20121;-77
2022/09/20 08:38:51;;;;;;;3.85;2.25;;;;;;;12.41;100.00;98844.72;4495564;31;20139;-75
2022/09/20 08:41:46;;;;;;;2.37;1.95;;;;;;;12.36;100.00;98845.16;4491462;31;20096;-77
2022/09/20 08:44:18;;;;;;;2.65;2.30;;;;;;;12.38;100.00;98842.41;4496239;31;20147;-77
2022/09/20 08:46:47;;;;;;;4.20;2.17;;;;;;;12.62;100.00;98848.91;4486464;31;20576;-78
2022/09/20 08:49:25;;;;;;;3.75;2.30;;;;;;;12.45;100.00;98850.53;4495577;31;20163;-77
2022/09/20 08:51:53;;;;;;;3.75;2.33;;;;;;;12.73;100.00;98851.31;4499269;31;20096;-78
2022/09/20 08:54:23;;;;;;;3.53;2.42;;;;;;;12.81;99.49;98851.41;4489875;31;20092;-78
2022/09/20 08:56:50;;;;;;;3.05;2.10;;;;;;;12.62;99.39;98854.16;4495257;31;20147;-77
2022/09/20 08:59:19;;;;;;;3.70;2.20;;;;;;;12.38;100.00;98852.91;4499465;31;20133;-78
2022/09/20 09:01:48;;;;;;;2.50;1.92;;;;;;;12.34;100.00;98851.53;4497009;31;20096;-78
2022/09/20 09:04:18;;;;;;;2.15;1.77;;;;;;;12.24;100.00;98868.16;4496058;31;20532;-77
2022/09/20 09:06:45;;;;;;;3.33;1.73;;;;;;;12.24;100.00;98860.28;4487947;31;20114;-77
2022/09/20 09:09:24;;;;;;;1.67;1.50;;;;;;;12.17;100.00;98859.25;4498036;31;20430;-76
2022/09/20 09:11:54;;;;;;;3.65;1.70;;;;;;;12.18;100.00;98863.50;4499545;31;20827;-77
2022/09/20 09:17:15;;;;;;;2.30;1.80;;;;;;;12.02;100.00;98852.78;4494405;31;20096;-77
2022/09/20 09:19:44;;;;;;;4.62;1.87;;;;;;;12.30;100.00;98855.44;4491320;31;20115;-77
2022/09/20 09:22:17;;;;;;;5.62;1.33;;;;;;;12.56;100.00;98856.38;4486653;31;20121;-77
2022/09/20 09:24:45;;;;;;;3.37;1.42;;;;;;;12.50;100.00;98859.59;4489663;31;20433;-77
2022/09/20 09:27:18;;;;;;;3.08;1.12;;;;;;;12.47;100.00;98852.03;4498584;31;20675;-78
2022/09/20 09:29:53;;;;;;;3.22;1.08;;;;;;;12.43;99.91;98850.69;4499614;31;20123;-76
2022/09/20 09:32:30;;;;;;;2.53;1.00;;;;;;;12.37;99.78;98853.88;4500263;31;20114;-76
2022/09/20 09:35:25;;;;;;;1.30;1.20;;;;;;;12.43;97.76;98850.69;4497984;31;20119;-76
2022/09/20 09:37:58;;;;;;;3.33;1.30;;;;;;;12.86;96.47;98853.59;4428205;32;20127;-76
2022/09/20 09:40:27;;;;;;;3.30;1.23;;;;;;;12.87;97.11;98863.09;4432610;32;20162;-76
2022/09/20 09:43:01;;;;;;;2.87;1.30;;;;;;;12.81;96.45;98858.44;4423939;32;20447;-76
2022/09/20 09:45:37;;;;;;;1.73;1.08;;;;;;;12.78;96.75;98862.22;4433214;32;20162;-75
2022/09/20 09:48:22;;;;;;;1.95;1.42;;;;;;;12.57;96.89;98842.28;4434056;32;20161;-76
2022/09/20 09:51:06;;;;;;;1.45;1.20;;;;;;;12.58;97.06;98851.81;4433358;32;20418;-78
2022/09/20 09:53:34;;;;;;;3.35;1.20;;;;;;;12.51;94.02;98848.13;4433709;32;20108;-76
2022/09/20 09:56:18;;;;;;;3.35;1.10;;;;;;;12.54;97.63;98842.56;4434237;32;20143;-74
2022/09/20 09:58:57;;;;;;;2.27;1.17;;;;;;;12.59;97.73;98845.56;4433638;32;20102;-76
2022/09/20 10:01:43;;;;;;;1.95;1.12;;;;;;;12.52;95.55;98844.53;4434148;32;20194;-75
2022/09/20 10:04:29;;;;;;;4.30;1.17;;;;;;;12.32;95.10;98842.97;4434851;32;20116;-76
2022/09/20 10:06:58;;;;;;;1.25;1.12;;;;;;;12.50;93.14;98840.41;4420744;32;20116;-74
2022/09/20 10:09:29;;;;;;;1.52;1.00;;;;;;;12.45;91.15;98838.22;4433221;32;20910;-76
2022/09/20 10:12:25;;;;;;;1.52;1.17;;;;;;;12.50;92.86;98841.22;4433257;32;20121;-75
2022/09/20 10:15:03;;;;;;;1.73;1.10;;;;;;;12.60;90.05;98843.78;4458686;32;20128;-76
2022/09/20 10:17:49;;;;;;;1.87;1.27;;;;;;;12.98;92.09;98841.03;4490296;31;20439;-75
2022/09/20 10:20:36;;;;;;;1.40;0.95;;;;;;;12.94;90.53;98846.59;4485985;31;20099;-75
2022/09/20 10:23:09;;;;;;;1.87;1.10;;;;;;;12.82;88.39;98844.34;4493392;31;20095;-74
2022/09/20 10:26:21;;;;;;;1.87;0.98;;;;;;;12.84;89.62;98845.00;4495066;31;20127;-75
2022/09/20 10:28:58;;;;;;;2.53;1.10;;;;;;;12.89;89.81;98846.22;4498934;31;20134;-74
2022/09/20 10:31:55;;;;;;;3.30;0.90;;;;;;;13.26;90.50;98844.38;4499013;31;20163;-75
2022/09/20 10:34:44;;;;;;;1.33;1.00;;;;;;;13.60;89.50;98836.59;4480740;31;20096;-75
2022/09/20 10:37:24;;;;;;;1.48;1.17;;;;;;;13.70;87.74;98833.88;4487819;31;21127;-74
2022/09/20 10:40:02;;;;;;;1.05;0.93;;;;;;;13.78;87.38;98836.56;4491219;31;20092;-72
2022/09/20 10:45:55;;;;;;;1.90;1.40;;;;;;;13.44;89.87;98839.97;4492511;31;20482;-73
2022/09/20 10:48:51;;;;;;;1.70;1.42;;;;;;;13.02;92.73;98845.00;4491943;31;20162;-73
2022/09/20 10:51:24;;;;;;;1.87;1.30;;;;;;;12.88;95.33;98849.81;4486274;31;20567;-73
2022/09/20 10:54:20;;;;;;;2.12;1.70;;;;;;;12.77;97.40;98842.16;4493107;31;20111;-72
2022/09/20 10:56:55;;;;;;;2.28;1.80;;;;;;;12.73;98.91;98841.63;4499867;31;20160;-73
2022/09/20 10:59:43;;;;;;;4.43;1.70;;;;;;;12.62;100.00;98843.66;4477571;31;20159;-73
2022/09/20 11:02:37;;;;;;;2.12;1.50;;;;;;;12.49;100.00;98850.09;4490596;31;20260;-72
2022/09/20 11:05:17;;;;;;;2.30;1.58;;;;;;;12.77;100.00;98847.41;4486506;31;20828;-73
2022/09/20 11:07:53;;;;;;;4.32;1.62;;;;;;;12.71;100.00;98848.00;4493746;31;20092;-73
2022/09/20 11:10:24;;;;;;;1.30;1.10;;;;;;;12.89;100.00;98843.59;4491753;31;20092;-72
2022/09/20 11:12:59;;;;;;;2.80;1.40;;;;;;;13.11;100.00;98839.69;4481971;31;20130;-73
2022/09/20 11:15:32;;;;;;;2.55;1.20;;;;;;;13.27;100.00;98844.22;4483032;31;20445;-73
2022/09/20 11:18:04;;;;;;;1.55;1.20;;;;;;;13.53;100.00;98843.47;4487893;31;20088;-73
2022/09/20 11:20:36;;;;;;;2.33;1.30;;;;;;;13.67;98.49;98839.44;4490351;31;20122;-72
2022/09/20 11:23:16;;;;;;;2.28;1.10;;;;;;;14.18;95.97;98836.91;4492472;31;20091;-73
2022/09/20 11:25:53;;;;;;;1.50;1.30;;;;;;;14.51;89.37;98831.75;4487619;31;20525;-73
2022/09/20 11:28:31;;;;;;;3.12;1.17;;;;;;;14.49;86.89;98831.09;4489670;31;20099;-73
2022/09/20 11:31:19;;;;;;;1.73;1.00;;;;;;;14.44;85.13;98825.47;4495585;31;20151;-73
2022/09/20 11:33:51;;;;;;;2.15;1.00;;;;;;;14.38;84.71;98827.78;4487851;31;20099;-73
2022/09/20 11:36:30;;;;;;;3.10;0.98;;;;;;;14.75;84.53;98827.53;4485998;31;20167;-73
2022/09/20 11:39:02;;;;;;;0.95;0.90;;;;;;;14.81;81.41;98822.44;4498867;31;20127;-73
2022/09/20 11:41:33;;;;;;;1.20;0.90;;;;;;;14.69;82.62;98819.28;4491496;31;20150;-72
2022/09/20 11:44:06;;;;;;;2.22;1.23;;;;;;;14.69;82.97;98813.22;4490306;31;20479;-73
2022/09/20 11:47:03;;;;;;;2.05;1.08;;;;;;;14.61;84.31;98811.37;4480256;31;20139;-73
2022/09/20 11:49:57;;;;;;;1.40;1.20;;;;;;;14.81;86.21;98808.44;4493779;31;20088;-73
2022/09/20 11:52:43;;;;;;;2.65;1.12;;;;;;;14.71;86.82;98816.50;4483012;31;20131;-72
2022/09/20 11:55:16;;;;;;;1.17;1.08;;;;;;;14.53;86.21;98803.41;4483604;31;20396;-72
2022/09/20 11:57:45;;;;;;;3.08;1.30;;;;;;;14.52;86.36;98807.88;4496292;31;20738;-72
2022/09/20 12:00:12;;;;;;;2.08;1.30;;;;;;;14.25;87.70;98806.31;4480436;31;20506;-72
2022/09/20 12:02:47;;;;;;;3.97;1.42;;;;;;;14.36;89.78;98810.47;4488398;31;20165;-73
2022/09/20 12:05:34;;;;;;;1.98;1.20;;;;;;;14.52;88.67;98804.41;4485004;31;20783;-73
2022/09/20 12:08:05;;;;;;;1.77;0.88;;;;;;;14.65;89.62;98803.97;4489355;31;20363;-73
2022/09/20 12:10:36;;;;;;;1.55;0.77;;;;;;;14.44;83.83;98794.66;4497095;31;20110;-73
2022/09/20 12:13:06;;;;;;;1.12;0.80;;;;;;;14.53;84.01;98798.13;4492948;31;20779;-73
2022/09/20 12:15:39;;;;;;;1.05;0.90;;;;;;;14.65;82.73;98799.50;4481567;31;20172;-73
2022/09/20 12:18:31;;;;;;;5.55;1.10;;;;;;;14.68;80.92;98796.53;4492712;31;20107;-73
2022/09/20 12:21:07;;;;;;;1.45;1.00;;;;;;;14.69;79.47;98798.19;4497384;31;20370;-74
2022/09/20 12:23:44;;;;;;;2.00;0.90;;;;;;;14.54;80.71;98794.53;4483508;31;20123;-74
2022/09/20 12:26:20;;;;;;;1.42;1.00;;;;;;;14.28;82.52;98795.44;4487476;31;20105;-74
2022/09/20 12:28:51;;;;;;;1.40;1.00;;;;;;;14.59;84.39;98789.56;4490813;31;20618;-74
2022/09/20 12:31:21;;;;;;;2.83;0.82;;;;;;;14.87;78.65;98779.59;4487490;31;20096;-73